KCMX

Houghton County Memorial Airport

Airport
ICAO code
KCMX
Summary
ICAO Region
NAM
ICAO Territory
Location

Hancock / Calumet, Michigan,

Coordinates
47° 10' 6" N , 88° 29' 20" W
KCC
Airport CFIT
Altimeter Temperature Error Correction
Airport WX
Lake Effect Snow
Metar
Observation
KCMX 031953Z AUTO 15005KT 10SM CLR 22/12 A3022 RMK AO2 SLP234 T02170117
Station
Hancock, Houghton County Memorial Airport
Date/Time
2022-10-03 19:53:00
Wind direction
150°
Wind speed
05 kts
Lowest cloud amount
n/a
Temperature
21.7°C
Dew point
11.7°C
Humidity
53%
Weather condition
n/a

Description

Houghton County Memorial Airport is a public use airport located 7 km southwest of the central business district of Calumet, a village in Houghton County, Michigan.

Climatology

Humid Continental climate (Köppen climate classification Dfb) - Variable weather patterns and a large seasonal temperature variance. Summers are often warm and humid with frequent thunderstorms and winters can be very cold with frequent snowfall and persistent snow cover.

Airport map

Aerial View

SKYbrary Partners:

Safety knowledge contributed by: